sensor_id;sensor_type;location;lat;lon;timestamp;P1;durP1;ratioP1;P2;durP2;ratioP2
78288;SDS011;67539;48.752;12.922;2023-09-19T00:00:20;4.43;;;2.95;;
78288;SDS011;67539;48.752;12.922;2023-09-19T00:02:54;4.32;;;2.80;;
78288;SDS011;67539;48.752;12.922;2023-09-19T00:05:26;5.55;;;2.85;;
78288;SDS011;67539;48.752;12.922;2023-09-19T00:07:56;6.47;;;2.95;;
78288;SDS011;67539;48.752;12.922;2023-09-19T00:10:26;5.10;;;3.38;;
78288;SDS011;67539;48.752;12.922;2023-09-19T00:12:59;4.85;;;2.85;;
78288;SDS011;67539;48.752;12.922;2023-09-19T00:15:36;4.38;;;2.20;;
78288;SDS011;67539;48.752;12.922;2023-09-19T00:18:04;4.38;;;2.95;;
78288;SDS011;67539;48.752;12.922;2023-09-19T00:20:35;3.20;;;2.42;;
78288;SDS011;67539;48.752;12.922;2023-09-19T00:23:04;4.30;;;2.42;;
78288;SDS011;67539;48.752;12.922;2023-09-19T00:25:35;4.05;;;2.15;;
78288;SDS011;67539;48.752;12.922;2023-09-19T00:28:05;3.55;;;2.60;;
78288;SDS011;67539;48.752;12.922;2023-09-19T00:30:34;3.75;;;2.08;;
78288;SDS011;67539;48.752;12.922;2023-09-19T00:33:04;4.93;;;2.20;;
78288;SDS011;67539;48.752;12.922;2023-09-19T00:35:34;4.05;;;2.33;;
78288;SDS011;67539;48.752;12.922;2023-09-19T00:38:03;4.65;;;2.17;;
78288;SDS011;67539;48.752;12.922;2023-09-19T00:40:33;5.22;;;2.30;;
78288;SDS011;67539;48.752;12.922;2023-09-19T00:43:02;3.35;;;2.10;;
78288;SDS011;67539;48.752;12.922;2023-09-19T00:45:31;4.15;;;2.53;;
78288;SDS011;67539;48.752;12.922;2023-09-19T00:48:00;4.63;;;2.60;;
78288;SDS011;67539;48.752;12.922;2023-09-19T00:50:37;3.72;;;2.60;;
78288;SDS011;67539;48.752;12.922;2023-09-19T00:53:10;3.55;;;2.30;;
78288;SDS011;67539;48.752;12.922;2023-09-19T00:55:44;8.45;;;2.92;;
78288;SDS011;67539;48.752;12.922;2023-09-19T00:58:13;5.80;;;2.55;;
78288;SDS011;67539;48.752;12.922;2023-09-19T01:00:43;3.28;;;2.22;;
78288;SDS011;67539;48.752;12.922;2023-09-19T01:03:11;5.32;;;2.53;;
78288;SDS011;67539;48.752;12.922;2023-09-19T01:05:40;3.20;;;2.28;;
78288;SDS011;67539;48.752;12.922;2023-09-19T01:08:10;5.28;;;3.20;;
78288;SDS011;67539;48.752;12.922;2023-09-19T01:10:39;7.30;;;3.50;;
78288;SDS011;67539;48.752;12.922;2023-09-19T01:13:19;5.32;;;3.05;;
78288;SDS011;67539;48.752;12.922;2023-09-19T01:16:02;5.78;;;2.92;;
78288;SDS011;67539;48.752;12.922;2023-09-19T01:18:40;5.32;;;3.15;;
78288;SDS011;67539;48.752;12.922;2023-09-19T01:21:15;3.85;;;2.97;;
78288;SDS011;67539;48.752;12.922;2023-09-19T01:27:06;4.45;;;2.85;;
78288;SDS011;67539;48.752;12.922;2023-09-19T01:30:00;9.07;;;4.22;;
78288;SDS011;67539;48.752;12.922;2023-09-19T01:32:34;5.72;;;3.10;;
78288;SDS011;67539;48.752;12.922;2023-09-19T01:35:04;5.22;;;2.78;;
78288;SDS011;67539;48.752;12.922;2023-09-19T01:37:33;4.40;;;3.42;;
78288;SDS011;67539;48.752;12.922;2023-09-19T01:40:02;4.82;;;2.90;;
78288;SDS011;67539;48.752;12.922;2023-09-19T01:42:44;4.13;;;2.67;;
78288;SDS011;67539;48.752;12.922;2023-09-19T01:45:20;5.32;;;3.38;;
78288;SDS011;67539;48.752;12.922;2023-09-19T01:47:54;3.53;;;2.38;;
78288;SDS011;67539;48.752;12.922;2023-09-19T01:50:27;4.75;;;2.97;;
78288;SDS011;67539;48.752;12.922;2023-09-19T01:52:59;5.07;;;2.70;;
78288;SDS011;67539;48.752;12.922;2023-09-19T01:55:36;3.92;;;2.88;;
78288;SDS011;67539;48.752;12.922;2023-09-19T01:58:12;3.75;;;2.90;;
78288;SDS011;67539;48.752;12.922;2023-09-19T02:00:47;9.63;;;3.10;;
78288;SDS011;67539;48.752;12.922;2023-09-19T02:03:18;4.72;;;3.25;;
78288;SDS011;67539;48.752;12.922;2023-09-19T02:05:49;5.40;;;3.35;;
78288;SDS011;67539;48.752;12.922;2023-09-19T02:08:20;4.60;;;3.00;;
78288;SDS011;67539;48.752;12.922;2023-09-19T02:10:50;4.45;;;2.95;;
78288;SDS011;67539;48.752;12.922;2023-09-19T02:13:20;5.40;;;2.90;;
78288;SDS011;67539;48.752;12.922;2023-09-19T02:15:51;5.13;;;3.35;;
78288;SDS011;67539;48.752;12.922;2023-09-19T02:18:19;4.88;;;3.42;;
78288;SDS011;67539;48.752;12.922;2023-09-19T02:20:48;6.38;;;3.30;;
78288;SDS011;67539;48.752;12.922;2023-09-19T02:23:17;7.55;;;3.90;;
78288;SDS011;67539;48.752;12.922;2023-09-19T02:25:51;7.68;;;3.90;;
78288;SDS011;67539;48.752;12.922;2023-09-19T02:28:20;6.55;;;3.38;;
78288;SDS011;67539;48.752;12.922;2023-09-19T02:30:51;5.80;;;3.55;;
78288;SDS011;67539;48.752;12.922;2023-09-19T02:33:19;8.45;;;3.33;;
78288;SDS011;67539;48.752;12.922;2023-09-19T02:35:54;7.65;;;3.08;;
78288;SDS011;67539;48.752;12.922;2023-09-19T02:38:24;6.15;;;2.70;;
78288;SDS011;67539;48.752;12.922;2023-09-19T02:40:52;4.78;;;3.60;;
78288;SDS011;67539;48.752;12.922;2023-09-19T02:43:21;6.93;;;3.10;;
78288;SDS011;67539;48.752;12.922;2023-09-19T02:45:51;7.65;;;3.15;;
78288;SDS011;67539;48.752;12.922;2023-09-19T02:48:21;5.22;;;3.20;;
78288;SDS011;67539;48.752;12.922;2023-09-19T02:50:49;3.95;;;2.70;;
78288;SDS011;67539;48.752;12.922;2023-09-19T02:53:17;6.00;;;2.80;;
78288;SDS011;67539;48.752;12.922;2023-09-19T02:55:46;5.88;;;3.28;;
78288;SDS011;67539;48.752;12.922;2023-09-19T02:58:15;5.15;;;3.17;;
78288;SDS011;67539;48.752;12.922;2023-09-19T03:00:45;4.80;;;2.60;;
78288;SDS011;67539;48.752;12.922;2023-09-19T03:03:16;5.15;;;3.00;;
78288;SDS011;67539;48.752;12.922;2023-09-19T03:05:45;5.97;;;3.22;;
78288;SDS011;67539;48.752;12.922;2023-09-19T03:08:16;5.97;;;3.65;;
78288;SDS011;67539;48.752;12.922;2023-09-19T03:10:47;5.50;;;2.83;;
78288;SDS011;67539;48.752;12.922;2023-09-19T03:13:15;5.22;;;3.15;;
78288;SDS011;67539;48.752;12.922;2023-09-19T03:15:43;6.00;;;3.28;;
78288;SDS011;67539;48.752;12.922;2023-09-19T03:18:16;6.68;;;2.95;;
78288;SDS011;67539;48.752;12.922;2023-09-19T03:20:51;4.20;;;2.88;;
78288;SDS011;67539;48.752;12.922;2023-09-19T03:23:22;4.82;;;2.80;;
78288;SDS011;67539;48.752;12.922;2023-09-19T03:25:50;5.00;;;2.78;;
78288;SDS011;67539;48.752;12.922;2023-09-19T03:28:19;4.97;;;2.90;;
78288;SDS011;67539;48.752;12.922;2023-09-19T03:30:57;5.07;;;2.65;;
78288;SDS011;67539;48.752;12.922;2023-09-19T03:33:29;6.55;;;3.47;;
78288;SDS011;67539;48.752;12.922;2023-09-19T03:36:00;6.20;;;2.80;;
78288;SDS011;67539;48.752;12.922;2023-09-19T03:38:31;5.65;;;2.83;;
78288;SDS011;67539;48.752;12.922;2023-09-19T03:41:00;4.57;;;2.60;;
78288;SDS011;67539;48.752;12.922;2023-09-19T03:43:29;4.53;;;2.53;;
78288;SDS011;67539;48.752;12.922;2023-09-19T03:46:01;6.63;;;3.10;;
78288;SDS011;67539;48.752;12.922;2023-09-19T03:48:33;4.78;;;2.63;;
78288;SDS011;67539;48.752;12.922;2023-09-19T03:51:02;4.13;;;2.45;;
78288;SDS011;67539;48.752;12.922;2023-09-19T03:53:31;4.53;;;3.05;;
78288;SDS011;67539;48.752;12.922;2023-09-19T03:55:59;4.05;;;2.85;;
78288;SDS011;67539;48.752;12.922;2023-09-19T03:58:29;4.50;;;2.90;;
78288;SDS011;67539;48.752;12.922;2023-09-19T04:00:58;4.32;;;2.95;;
78288;SDS011;67539;48.752;12.922;2023-09-19T04:03:27;5.32;;;3.17;;
78288;SDS011;67539;48.752;12.922;2023-09-19T04:06:03;6.13;;;3.15;;
78288;SDS011;67539;48.752;12.922;2023-09-19T04:08:31;6.35;;;2.72;;
78288;SDS011;67539;48.752;12.922;2023-09-19T04:10:59;4.50;;;2.47;;
78288;SDS011;67539;48.752;12.922;2023-09-19T04:13:28;4.50;;;2.80;;
78288;SDS011;67539;48.752;12.922;2023-09-19T04:15:56;4.30;;;2.83;;
78288;SDS011;67539;48.752;12.922;2023-09-19T04:18:24;4.50;;;2.83;;
78288;SDS011;67539;48.752;12.922;2023-09-19T04:20:52;4.22;;;2.58;;
78288;SDS011;67539;48.752;12.922;2023-09-19T04:23:24;7.80;;;2.85;;
78288;SDS011;67539;48.752;12.922;2023-09-19T04:25:52;7.53;;;2.95;;
78288;SDS011;67539;48.752;12.922;2023-09-19T04:28:21;5.88;;;3.03;;
78288;SDS011;67539;48.752;12.922;2023-09-19T04:30:49;6.65;;;2.92;;
78288;SDS011;67539;48.752;12.922;2023-09-19T04:33:17;5.20;;;2.83;;
78288;SDS011;67539;48.752;12.922;2023-09-19T04:35:48;3.80;;;2.35;;
78288;SDS011;67539;48.752;12.922;2023-09-19T04:38:17;7.53;;;3.25;;
78288;SDS011;67539;48.752;12.922;2023-09-19T04:40:46;6.93;;;2.67;;
78288;SDS011;67539;48.752;12.922;2023-09-19T04:43:15;4.80;;;2.75;;
78288;SDS011;67539;48.752;12.922;2023-09-19T04:45:43;8.30;;;2.58;;
78288;SDS011;67539;48.752;12.922;2023-09-19T04:48:13;7.13;;;2.38;;
78288;SDS011;67539;48.752;12.922;2023-09-19T04:50:42;4.38;;;2.47;;
78288;SDS011;67539;48.752;12.922;2023-09-19T04:53:10;5.55;;;3.22;;
78288;SDS011;67539;48.752;12.922;2023-09-19T04:55:39;3.63;;;2.20;;
78288;SDS011;67539;48.752;12.922;2023-09-19T04:58:08;4.20;;;2.30;;
78288;SDS011;67539;48.752;12.922;2023-09-19T05:00:37;8.45;;;2.38;;
78288;SDS011;67539;48.752;12.922;2023-09-19T05:03:05;2.45;;;1.58;;
78288;SDS011;67539;48.752;12.922;2023-09-19T05:05:35;5.05;;;2.10;;
78288;SDS011;67539;48.752;12.922;2023-09-19T05:08:05;7.03;;;2.00;;
78288;SDS011;67539;48.752;12.922;2023-09-19T05:10:35;4.30;;;1.63;;
78288;SDS011;67539;48.752;12.922;2023-09-19T05:13:04;3.30;;;1.50;;
78288;SDS011;67539;48.752;12.922;2023-09-19T05:15:35;2.53;;;1.50;;
78288;SDS011;67539;48.752;12.922;2023-09-19T05:18:03;2.42;;;1.42;;
78288;SDS011;67539;48.752;12.922;2023-09-19T05:20:32;3.22;;;1.48;;
78288;SDS011;67539;48.752;12.922;2023-09-19T05:23:04;2.65;;;1.50;;
78288;SDS011;67539;48.752;12.922;2023-09-19T05:25:35;4.35;;;1.80;;
78288;SDS011;67539;48.752;12.922;2023-09-19T05:28:06;2.40;;;1.50;;
78288;SDS011;67539;48.752;12.922;2023-09-19T05:30:35;4.82;;;1.80;;
78288;SDS011;67539;48.752;12.922;2023-09-19T05:33:05;3.65;;;2.00;;
78288;SDS011;67539;48.752;12.922;2023-09-19T05:35:33;3.13;;;1.80;;
78288;SDS011;67539;48.752;12.922;2023-09-19T05:38:03;3.22;;;1.85;;
78288;SDS011;67539;48.752;12.922;2023-09-19T05:40:32;3.60;;;1.80;;
78288;SDS011;67539;48.752;12.922;2023-09-19T05:43:01;2.83;;;1.45;;
78288;SDS011;67539;48.752;12.922;2023-09-19T05:45:30;2.70;;;1.70;;
78288;SDS011;67539;48.752;12.922;2023-09-19T05:48:06;3.33;;;1.90;;
78288;SDS011;67539;48.752;12.922;2023-09-19T05:50:36;3.22;;;1.73;;
78288;SDS011;67539;48.752;12.922;2023-09-19T05:53:05;2.95;;;1.55;;
78288;SDS011;67539;48.752;12.922;2023-09-19T05:55:33;3.38;;;1.65;;
78288;SDS011;67539;48.752;12.922;2023-09-19T05:58:02;4.05;;;1.67;;
78288;SDS011;67539;48.752;12.922;2023-09-19T06:00:31;2.53;;;1.33;;
78288;SDS011;67539;48.752;12.922;2023-09-19T06:03:03;3.17;;;1.42;;
78288;SDS011;67539;48.752;12.922;2023-09-19T06:05:31;3.25;;;1.95;;
78288;SDS011;67539;48.752;12.922;2023-09-19T06:07:59;2.80;;;1.40;;
78288;SDS011;67539;48.752;12.922;2023-09-19T06:10:28;6.70;;;1.83;;
78288;SDS011;67539;48.752;12.922;2023-09-19T06:12:57;2.70;;;1.85;;
78288;SDS011;67539;48.752;12.922;2023-09-19T06:15:25;4.35;;;1.77;;
78288;SDS011;67539;48.752;12.922;2023-09-19T06:17:54;3.65;;;1.40;;
78288;SDS011;67539;48.752;12.922;2023-09-19T06:20:25;2.50;;;1.20;;
78288;SDS011;67539;48.752;12.922;2023-09-19T06:22:53;3.10;;;1.58;;
78288;SDS011;67539;48.752;12.922;2023-09-19T06:25:22;3.67;;;1.80;;
78288;SDS011;67539;48.752;12.922;2023-09-19T06:27:51;3.25;;;1.60;;
78288;SDS011;67539;48.752;12.922;2023-09-19T06:30:20;4.22;;;2.10;;
78288;SDS011;67539;48.752;12.922;2023-09-19T06:32:55;4.13;;;2.25;;
78288;SDS011;67539;48.752;12.922;2023-09-19T06:35:25;4.28;;;2.25;;
78288;SDS011;67539;48.752;12.922;2023-09-19T06:37:53;3.58;;;1.65;;
78288;SDS011;67539;48.752;12.922;2023-09-19T06:40:26;2.75;;;1.65;;
78288;SDS011;67539;48.752;12.922;2023-09-19T06:42:54;4.50;;;1.73;;
78288;SDS011;67539;48.752;12.922;2023-09-19T06:45:23;4.10;;;1.92;;
78288;SDS011;67539;48.752;12.922;2023-09-19T06:47:54;4.40;;;2.00;;
78288;SDS011;67539;48.752;12.922;2023-09-19T06:50:26;3.05;;;1.98;;
78288;SDS011;67539;48.752;12.922;2023-09-19T06:52:57;2.80;;;1.50;;
78288;SDS011;67539;48.752;12.922;2023-09-19T06:55:27;3.58;;;1.92;;
78288;SDS011;67539;48.752;12.922;2023-09-19T06:57:58;3.45;;;1.67;;
78288;SDS011;67539;48.752;12.922;2023-09-19T07:00:26;3.85;;;1.60;;
78288;SDS011;67539;48.752;12.922;2023-09-19T07:02:58;3.13;;;1.58;;
78288;SDS011;67539;48.752;12.922;2023-09-19T07:05:29;3.20;;;1.30;;
78288;SDS011;67539;48.752;12.922;2023-09-19T07:07:58;2.78;;;1.60;;
78288;SDS011;67539;48.752;12.922;2023-09-19T07:10:27;3.08;;;1.23;;
78288;SDS011;67539;48.752;12.922;2023-09-19T07:12:56;3.72;;;1.60;;
78288;SDS011;67539;48.752;12.922;2023-09-19T07:15:25;3.45;;;1.45;;
78288;SDS011;67539;48.752;12.922;2023-09-19T07:17:54;3.63;;;1.75;;
78288;SDS011;67539;48.752;12.922;2023-09-19T07:20:24;4.30;;;1.80;;
78288;SDS011;67539;48.752;12.922;2023-09-19T07:22:55;3.63;;;1.50;;
78288;SDS011;67539;48.752;12.922;2023-09-19T07:25:26;3.42;;;1.67;;
78288;SDS011;67539;48.752;12.922;2023-09-19T07:27:54;4.30;;;1.58;;
78288;SDS011;67539;48.752;12.922;2023-09-19T07:30:22;4.05;;;1.92;;
78288;SDS011;67539;48.752;12.922;2023-09-19T07:32:51;2.72;;;1.92;;
78288;SDS011;67539;48.752;12.922;2023-09-19T07:35:20;4.82;;;2.10;;
78288;SDS011;67539;48.752;12.922;2023-09-19T07:37:49;3.92;;;2.30;;
78288;SDS011;67539;48.752;12.922;2023-09-19T07:40:19;5.63;;;3.58;;
78288;SDS011;67539;48.752;12.922;2023-09-19T07:42:48;4.07;;;2.65;;
78288;SDS011;67539;48.752;12.922;2023-09-19T07:45:17;3.75;;;2.25;;
78288;SDS011;67539;48.752;12.922;2023-09-19T07:47:45;4.13;;;2.60;;
78288;SDS011;67539;48.752;12.922;2023-09-19T07:50:14;3.95;;;1.98;;
78288;SDS011;67539;48.752;12.922;2023-09-19T07:52:45;3.17;;;1.85;;
78288;SDS011;67539;48.752;12.922;2023-09-19T07:55:13;3.28;;;1.67;;
78288;SDS011;67539;48.752;12.922;2023-09-19T07:57:45;2.08;;;1.25;;
78288;SDS011;67539;48.752;12.922;2023-09-19T08:00:13;2.67;;;1.38;;
78288;SDS011;67539;48.752;12.922;2023-09-19T08:02:42;2.72;;;1.60;;
78288;SDS011;67539;48.752;12.922;2023-09-19T08:05:12;2.63;;;1.48;;
78288;SDS011;67539;48.752;12.922;2023-09-19T08:07:43;3.60;;;1.60;;
78288;SDS011;67539;48.752;12.922;2023-09-19T08:10:15;2.65;;;1.90;;
78288;SDS011;67539;48.752;12.922;2023-09-19T08:12:47;2.75;;;1.67;;
78288;SDS011;67539;48.752;12.922;2023-09-19T08:15:22;4.97;;;1.92;;
78288;SDS011;67539;48.752;12.922;2023-09-19T08:17:50;3.92;;;1.80;;
78288;SDS011;67539;48.752;12.922;2023-09-19T08:20:19;4.78;;;1.85;;
78288;SDS011;67539;48.752;12.922;2023-09-19T08:22:49;3.03;;;1.80;;
78288;SDS011;67539;48.752;12.922;2023-09-19T08:25:19;5.03;;;2.15;;
78288;SDS011;67539;48.752;12.922;2023-09-19T08:27:49;2.88;;;1.30;;
78288;SDS011;67539;48.752;12.922;2023-09-19T08:30:18;3.47;;;1.80;;
78288;SDS011;67539;48.752;12.922;2023-09-19T08:32:51;4.13;;;2.38;;
78288;SDS011;67539;48.752;12.922;2023-09-19T08:35:24;5.22;;;1.73;;
78288;SDS011;67539;48.752;12.922;2023-09-19T08:37:52;3.15;;;1.77;;
78288;SDS011;67539;48.752;12.922;2023-09-19T08:40:22;2.70;;;1.90;;
78288;SDS011;67539;48.752;12.922;2023-09-19T08:42:53;3.85;;;2.15;;
78288;SDS011;67539;48.752;12.922;2023-09-19T08:45:23;2.17;;;1.10;;
78288;SDS011;67539;48.752;12.922;2023-09-19T08:47:56;2.42;;;1.50;;
78288;SDS011;67539;48.752;12.922;2023-09-19T08:50:29;2.45;;;1.70;;
78288;SDS011;67539;48.752;12.922;2023-09-19T08:53:00;3.08;;;1.52;;
78288;SDS011;67539;48.752;12.922;2023-09-19T08:55:29;3.72;;;1.80;;
78288;SDS011;67539;48.752;12.922;2023-09-19T08:58:03;4.05;;;1.20;;
78288;SDS011;67539;48.752;12.922;2023-09-19T09:00:33;2.40;;;1.45;;
78288;SDS011;67539;48.752;12.922;2023-09-19T09:03:03;2.45;;;1.27;;
78288;SDS011;67539;48.752;12.922;2023-09-19T09:05:37;3.20;;;1.33;;
78288;SDS011;67539;48.752;12.922;2023-09-19T09:08:07;2.40;;;1.20;;
78288;SDS011;67539;48.752;12.922;2023-09-19T09:10:37;3.08;;;1.42;;
78288;SDS011;67539;48.752;12.922;2023-09-19T09:13:08;1.45;;;1.05;;
78288;SDS011;67539;48.752;12.922;2023-09-19T09:15:40;3.05;;;1.80;;
78288;SDS011;67539;48.752;12.922;2023-09-19T09:18:11;5.28;;;2.33;;
78288;SDS011;67539;48.752;12.922;2023-09-19T09:20:39;2.15;;;1.65;;
78288;SDS011;67539;48.752;12.922;2023-09-19T09:23:08;2.58;;;1.42;;
78288;SDS011;67539;48.752;12.922;2023-09-19T09:25:52;3.42;;;1.92;;
78288;SDS011;67539;48.752;12.922;2023-09-19T09:28:24;2.25;;;1.52;;
78288;SDS011;67539;48.752;12.922;2023-09-19T09:30:54;2.08;;;1.50;;
78288;SDS011;67539;48.752;12.922;2023-09-19T09:33:24;2.20;;;1.70;;
78288;SDS011;67539;48.752;12.922;2023-09-19T09:35:54;2.92;;;2.17;;
78288;SDS011;67539;48.752;12.922;2023-09-19T09:38:24;2.40;;;1.80;;
78288;SDS011;67539;48.752;12.922;2023-09-19T09:40:55;3.40;;;1.98;;
78288;SDS011;67539;48.752;12.922;2023-09-19T09:43:34;3.33;;;1.73;;
78288;SDS011;67539;48.752;12.922;2023-09-19T09:46:09;3.35;;;2.00;;
78288;SDS011;67539;48.752;12.922;2023-09-19T09:49:11;2.15;;;1.83;;
78288;SDS011;67539;48.752;12.922;2023-09-19T09:51:45;3.75;;;2.00;;
78288;SDS011;67539;48.752;12.922;2023-09-19T09:54:24;2.40;;;1.83;;
78288;SDS011;67539;48.752;12.922;2023-09-19T09:56:54;4.70;;;2.30;;
78288;SDS011;67539;48.752;12.922;2023-09-19T09:59:46;2.75;;;2.17;;
78288;SDS011;67539;48.752;12.922;2023-09-19T10:02:17;2.22;;;1.80;;
78288;SDS011;67539;48.752;12.922;2023-09-19T10:04:51;2.60;;;1.50;;
78288;SDS011;67539;48.752;12.922;2023-09-19T10:07:26;3.58;;;2.00;;
78288;SDS011;67539;48.752;12.922;2023-09-19T10:09:59;3.55;;;2.25;;
78288;SDS011;67539;48.752;12.922;2023-09-19T10:12:36;3.55;;;1.80;;
78288;SDS011;67539;48.752;12.922;2023-09-19T10:15:11;2.72;;;1.90;;
78288;SDS011;67539;48.752;12.922;2023-09-19T10:17:42;3.97;;;2.22;;
78288;SDS011;67539;48.752;12.922;2023-09-19T10:20:13;2.67;;;2.10;;
78288;SDS011;67539;48.752;12.922;2023-09-19T10:23:05;2.63;;;2.08;;
78288;SDS011;67539;48.752;12.922;2023-09-19T10:25:39;2.30;;;1.80;;
78288;SDS011;67539;48.752;12.922;2023-09-19T10:28:08;4.43;;;1.85;;
78288;SDS011;67539;48.752;12.922;2023-09-19T10:30:42;2.63;;;1.70;;
78288;SDS011;67539;48.752;12.922;2023-09-19T10:33:14;3.20;;;2.10;;
78288;SDS011;67539;48.752;12.922;2023-09-19T10:35:43;3.13;;;2.08;;
78288;SDS011;67539;48.752;12.922;2023-09-19T10:38:13;2.85;;;2.00;;
78288;SDS011;67539;48.752;12.922;2023-09-19T10:40:47;3.78;;;1.73;;
78288;SDS011;67539;48.752;12.922;2023-09-19T10:43:18;2.50;;;1.60;;
78288;SDS011;67539;48.752;12.922;2023-09-19T10:45:49;2.85;;;1.35;;
78288;SDS011;67539;48.752;12.922;2023-09-19T10:48:19;3.00;;;1.95;;
78288;SDS011;67539;48.752;12.922;2023-09-19T10:50:55;3.92;;;1.60;;
78288;SDS011;67539;48.752;12.922;2023-09-19T10:53:32;2.22;;;1.52;;
78288;SDS011;67539;48.752;12.922;2023-09-19T10:56:10;1.95;;;1.50;;
78288;SDS011;67539;48.752;12.922;2023-09-19T10:58:44;4.80;;;2.05;;
78288;SDS011;67539;48.752;12.922;2023-09-19T11:01:13;5.00;;;1.67;;
78288;SDS011;67539;48.752;12.922;2023-09-19T11:03:44;7.30;;;2.10;;
78288;SDS011;67539;48.752;12.922;2023-09-19T11:06:16;6.53;;;1.50;;
78288;SDS011;67539;48.752;12.922;2023-09-19T11:08:56;6.00;;;1.90;;
78288;SDS011;67539;48.752;12.922;2023-09-19T11:11:40;5.32;;;2.25;;
78288;SDS011;67539;48.752;12.922;2023-09-19T11:20:18;4.07;;;2.22;;
78288;SDS011;67539;48.752;12.922;2023-09-19T11:23:18;2.60;;;1.63;;
78288;SDS011;67539;48.752;12.922;2023-09-19T11:25:49;4.75;;;2.47;;
78288;SDS011;67539;48.752;12.922;2023-09-19T11:28:29;4.15;;;2.60;;
78288;SDS011;67539;48.752;12.922;2023-09-19T11:40:29;4.10;;;2.28;;
78288;SDS011;67539;48.752;12.922;2023-09-19T11:42:57;3.97;;;2.53;;
78288;SDS011;67539;48.752;12.922;2023-09-19T11:48:29;3.15;;;2.00;;
78288;SDS011;67539;48.752;12.922;2023-09-19T11:51:03;3.28;;;2.20;;
78288;SDS011;67539;48.752;12.922;2023-09-19T11:53:46;2.80;;;2.17;;
78288;SDS011;67539;48.752;12.922;2023-09-19T11:56:18;4.55;;;1.67;;
78288;SDS011;67539;48.752;12.922;2023-09-19T11:58:48;1.85;;;1.30;;
78288;SDS011;67539;48.752;12.922;2023-09-19T12:01:21;2.15;;;1.15;;
78288;SDS011;67539;48.752;12.922;2023-09-19T12:03:53;2.63;;;1.30;;
78288;SDS011;67539;48.752;12.922;2023-09-19T12:06:25;5.10;;;1.55;;
78288;SDS011;67539;48.752;12.922;2023-09-19T12:08:55;1.73;;;1.20;;
78288;SDS011;67539;48.752;12.922;2023-09-19T12:11:27;1.58;;;1.08;;
78288;SDS011;67539;48.752;12.922;2023-09-19T12:14:00;2.05;;;1.10;;
78288;SDS011;67539;48.752;12.922;2023-09-19T12:16:30;1.60;;;1.08;;
78288;SDS011;67539;48.752;12.922;2023-09-19T12:21:55;1.40;;;1.00;;
78288;SDS011;67539;48.752;12.922;2023-09-19T12:24:30;1.75;;;0.93;;
78288;SDS011;67539;48.752;12.922;2023-09-19T12:26:59;2.28;;;1.08;;
78288;SDS011;67539;48.752;12.922;2023-09-19T12:29:31;1.35;;;0.80;;
78288;SDS011;67539;48.752;12.922;2023-09-19T12:32:08;1.75;;;0.90;;
78288;SDS011;67539;48.752;12.922;2023-09-19T12:34:37;1.48;;;0.95;;
78288;SDS011;67539;48.752;12.922;2023-09-19T12:37:11;1.75;;;0.85;;
78288;SDS011;67539;48.752;12.922;2023-09-19T12:39:42;2.95;;;0.90;;
78288;SDS011;67539;48.752;12.922;2023-09-19T12:42:15;1.52;;;0.93;;
78288;SDS011;67539;48.752;12.922;2023-09-19T12:44:45;1.23;;;0.70;;
78288;SDS011;67539;48.752;12.922;2023-09-19T12:47:15;1.27;;;0.88;;
78288;SDS011;67539;48.752;12.922;2023-09-19T12:52:36;2.22;;;0.80;;
78288;SDS011;67539;48.752;12.922;2023-09-19T12:55:04;2.03;;;0.63;;
78288;SDS011;67539;48.752;12.922;2023-09-19T12:57:33;1.65;;;0.80;;
78288;SDS011;67539;48.752;12.922;2023-09-19T13:00:02;1.20;;;0.52;;
78288;SDS011;67539;48.752;12.922;2023-09-19T13:02:32;1.67;;;0.85;;
78288;SDS011;67539;48.752;12.922;2023-09-19T13:05:00;1.30;;;0.82;;
78288;SDS011;67539;48.752;12.922;2023-09-19T13:07:42;1.25;;;1.02;;
78288;SDS011;67539;48.752;12.922;2023-09-19T13:10:12;1.80;;;1.20;;
78288;SDS011;67539;48.752;12.922;2023-09-19T13:12:43;0.98;;;0.80;;
78288;SDS011;67539;48.752;12.922;2023-09-19T13:15:14;2.15;;;0.77;;
78288;SDS011;67539;48.752;12.922;2023-09-19T13:17:47;2.55;;;0.90;;
78288;SDS011;67539;48.752;12.922;2023-09-19T13:20:22;1.35;;;1.00;;
78288;SDS011;67539;48.752;12.922;2023-09-19T13:22:55;2.10;;;1.00;;
78288;SDS011;67539;48.752;12.922;2023-09-19T13:25:27;1.70;;;1.00;;
78288;SDS011;67539;48.752;12.922;2023-09-19T13:27:57;1.35;;;0.90;;
78288;SDS011;67539;48.752;12.922;2023-09-19T13:30:26;1.80;;;1.08;;
78288;SDS011;67539;48.752;12.922;2023-09-19T13:33:05;3.45;;;1.02;;
78288;SDS011;67539;48.752;12.922;2023-09-19T13:35:34;1.98;;;1.15;;
78288;SDS011;67539;48.752;12.922;2023-09-19T13:38:04;1.52;;;0.80;;
78288;SDS011;67539;48.752;12.922;2023-09-19T13:40:33;3.20;;;1.10;;
78288;SDS011;67539;48.752;12.922;2023-09-19T13:43:01;1.52;;;0.90;;
78288;SDS011;67539;48.752;12.922;2023-09-19T13:45:29;1.48;;;1.02;;
78288;SDS011;67539;48.752;12.922;2023-09-19T13:47:58;2.17;;;1.38;;
78288;SDS011;67539;48.752;12.922;2023-09-19T13:50:26;3.53;;;1.23;;
78288;SDS011;67539;48.752;12.922;2023-09-19T13:52:56;1.65;;;0.98;;
78288;SDS011;67539;48.752;12.922;2023-09-19T13:55:28;1.23;;;0.90;;
78288;SDS011;67539;48.752;12.922;2023-09-19T13:57:56;3.70;;;1.17;;
78288;SDS011;67539;48.752;12.922;2023-09-19T14:00:24;1.55;;;1.10;;
78288;SDS011;67539;48.752;12.922;2023-09-19T14:02:53;2.15;;;1.10;;
78288;SDS011;67539;48.752;12.922;2023-09-19T14:05:22;1.90;;;1.15;;
78288;SDS011;67539;48.752;12.922;2023-09-19T14:07:53;2.03;;;0.82;;
78288;SDS011;67539;48.752;12.922;2023-09-19T14:10:22;1.80;;;0.82;;
78288;SDS011;67539;48.752;12.922;2023-09-19T14:12:53;1.40;;;0.77;;
78288;SDS011;67539;48.752;12.922;2023-09-19T14:15:21;2.42;;;1.25;;
78288;SDS011;67539;48.752;12.922;2023-09-19T14:17:56;1.88;;;1.00;;
78288;SDS011;67539;48.752;12.922;2023-09-19T14:20:25;2.28;;;1.08;;
78288;SDS011;67539;48.752;12.922;2023-09-19T14:22:57;3.33;;;0.75;;
78288;SDS011;67539;48.752;12.922;2023-09-19T14:25:26;3.92;;;0.90;;
78288;SDS011;67539;48.752;12.922;2023-09-19T14:27:57;1.42;;;0.80;;
78288;SDS011;67539;48.752;12.922;2023-09-19T14:30:25;1.83;;;0.90;;
78288;SDS011;67539;48.752;12.922;2023-09-19T14:32:54;2.22;;;1.08;;
78288;SDS011;67539;48.752;12.922;2023-09-19T14:35:24;1.23;;;0.70;;
78288;SDS011;67539;48.752;12.922;2023-09-19T14:37:52;1.40;;;0.82;;
78288;SDS011;67539;48.752;12.922;2023-09-19T14:40:21;1.73;;;0.77;;
78288;SDS011;67539;48.752;12.922;2023-09-19T14:42:49;1.25;;;0.73;;
78288;SDS011;67539;48.752;12.922;2023-09-19T14:45:19;1.95;;;0.98;;
78288;SDS011;67539;48.752;12.922;2023-09-19T14:47:48;5.13;;;0.95;;
78288;SDS011;67539;48.752;12.922;2023-09-19T14:50:19;1.70;;;0.70;;
78288;SDS011;67539;48.752;12.922;2023-09-19T14:52:48;1.92;;;0.80;;
78288;SDS011;67539;48.752;12.922;2023-09-19T14:55:18;1.70;;;0.85;;
78288;SDS011;67539;48.752;12.922;2023-09-19T14:57:49;2.03;;;0.90;;
78288;SDS011;67539;48.752;12.922;2023-09-19T15:00:20;1.98;;;0.90;;
78288;SDS011;67539;48.752;12.922;2023-09-19T15:02:50;1.92;;;0.73;;
78288;SDS011;67539;48.752;12.922;2023-09-19T15:05:19;1.70;;;0.85;;
78288;SDS011;67539;48.752;12.922;2023-09-19T15:07:47;1.90;;;1.00;;
78288;SDS011;67539;48.752;12.922;2023-09-19T15:10:16;2.00;;;0.90;;
78288;SDS011;67539;48.752;12.922;2023-09-19T15:12:45;1.02;;;0.70;;
78288;SDS011;67539;48.752;12.922;2023-09-19T15:15:13;1.73;;;0.85;;
78288;SDS011;67539;48.752;12.922;2023-09-19T15:17:42;2.90;;;1.13;;
78288;SDS011;67539;48.752;12.922;2023-09-19T15:20:11;1.90;;;0.93;;
78288;SDS011;67539;48.752;12.922;2023-09-19T15:22:40;1.48;;;0.52;;